sensor_id;sensor_type;location;lat;lon;timestamp;temperature;humidity
4505;DHT22;2265;48.794;9.520;2023-07-29T00:00:21;18.60;98.00
4505;DHT22;2265;48.794;9.520;2023-07-29T00:02:48;18.40;98.00
4505;DHT22;2265;48.794;9.520;2023-07-29T00:05:15;18.40;98.00
4505;DHT22;2265;48.794;9.520;2023-07-29T00:07:42;18.30;98.00
4505;DHT22;2265;48.794;9.520;2023-07-29T00:10:10;18.30;98.00
4505;DHT22;2265;48.794;9.520;2023-07-29T00:12:37;18.20;98.00
4505;DHT22;2265;48.794;9.520;2023-07-29T00:15:06;18.20;98.00
4505;DHT22;2265;48.794;9.520;2023-07-29T00:17:33;18.20;98.00
4505;DHT22;2265;48.794;9.520;2023-07-29T00:20:01;18.10;98.00
4505;DHT22;2265;48.794;9.520;2023-07-29T00:22:29;18.10;98.00
4505;DHT22;2265;48.794;9.520;2023-07-29T00:24:57;18.00;98.00
4505;DHT22;2265;48.794;9.520;2023-07-29T00:27:25;17.90;98.00
4505;DHT22;2265;48.794;9.520;2023-07-29T00:29:52;17.90;98.00
4505;DHT22;2265;48.794;9.520;2023-07-29T00:32:20;18.00;98.00
4505;DHT22;2265;48.794;9.520;2023-07-29T00:34:47;18.00;98.00
4505;DHT22;2265;48.794;9.520;2023-07-29T00:37:14;18.10;98.00
4505;DHT22;2265;48.794;9.520;2023-07-29T00:39:41;18.30;98.00
4505;DHT22;2265;48.794;9.520;2023-07-29T00:42:09;18.40;98.00
4505;DHT22;2265;48.794;9.520;2023-07-29T00:44:36;18.40;98.00
4505;DHT22;2265;48.794;9.520;2023-07-29T00:47:03;18.50;98.00
4505;DHT22;2265;48.794;9.520;2023-07-29T00:49:33;18.40;98.00
4505;DHT22;2265;48.794;9.520;2023-07-29T00:52:00;18.30;98.00
4505;DHT22;2265;48.794;9.520;2023-07-29T00:54:27;18.30;98.00
4505;DHT22;2265;48.794;9.520;2023-07-29T00:57:11;18.30;98.00
4505;DHT22;2265;48.794;9.520;2023-07-29T00:59:40;18.20;98.00
4505;DHT22;2265;48.794;9.520;2023-07-29T01:02:07;18.30;98.00
4505;DHT22;2265;48.794;9.520;2023-07-29T01:04:37;18.20;98.00
4505;DHT22;2265;48.794;9.520;2023-07-29T01:07:14;18.10;98.00
4505;DHT22;2265;48.794;9.520;2023-07-29T01:09:52;18.20;98.00
4505;DHT22;2265;48.794;9.520;2023-07-29T01:12:28;18.20;98.00
4505;DHT22;2265;48.794;9.520;2023-07-29T01:15:01;18.20;98.00
4505;DHT22;2265;48.794;9.520;2023-07-29T01:17:35;18.20;98.00
4505;DHT22;2265;48.794;9.520;2023-07-29T01:20:08;18.20;98.00
4505;DHT22;2265;48.794;9.520;2023-07-29T01:22:37;18.30;98.00
4505;DHT22;2265;48.794;9.520;2023-07-29T01:25:07;18.30;98.00
4505;DHT22;2265;48.794;9.520;2023-07-29T01:27:34;18.20;98.00
4505;DHT22;2265;48.794;9.520;2023-07-29T01:30:02;18.30;98.00
4505;DHT22;2265;48.794;9.520;2023-07-29T01:32:36;18.20;98.00
4505;DHT22;2265;48.794;9.520;2023-07-29T01:35:11;18.20;98.00
4505;DHT22;2265;48.794;9.520;2023-07-29T01:37:41;18.10;98.00
4505;DHT22;2265;48.794;9.520;2023-07-29T01:40:12;18.10;98.00
4505;DHT22;2265;48.794;9.520;2023-07-29T01:42:41;18.20;98.00
4505;DHT22;2265;48.794;9.520;2023-07-29T01:45:09;18.20;98.00
4505;DHT22;2265;48.794;9.520;2023-07-29T01:47:36;18.10;98.00
4505;DHT22;2265;48.794;9.520;2023-07-29T01:50:07;18.00;98.00
4505;DHT22;2265;48.794;9.520;2023-07-29T01:52:34;18.00;98.00
4505;DHT22;2265;48.794;9.520;2023-07-29T01:55:01;18.00;98.00
4505;DHT22;2265;48.794;9.520;2023-07-29T01:57:30;18.10;98.00
4505;DHT22;2265;48.794;9.520;2023-07-29T01:59:57;18.10;98.00
4505;DHT22;2265;48.794;9.520;2023-07-29T02:02:24;18.10;98.00
4505;DHT22;2265;48.794;9.520;2023-07-29T02:04:52;18.10;98.00
4505;DHT22;2265;48.794;9.520;2023-07-29T02:07:21;18.10;98.00
4505;DHT22;2265;48.794;9.520;2023-07-29T02:09:48;18.10;98.00
4505;DHT22;2265;48.794;9.520;2023-07-29T02:12:15;18.00;98.00
4505;DHT22;2265;48.794;9.520;2023-07-29T02:14:44;18.00;98.00
4505;DHT22;2265;48.794;9.520;2023-07-29T02:17:11;18.00;98.00
4505;DHT22;2265;48.794;9.520;2023-07-29T02:19:38;18.00;98.00
4505;DHT22;2265;48.794;9.520;2023-07-29T02:22:05;18.00;98.00
4505;DHT22;2265;48.794;9.520;2023-07-29T02:24:32;18.00;98.00
4505;DHT22;2265;48.794;9.520;2023-07-29T02:26:59;18.00;98.00
4505;DHT22;2265;48.794;9.520;2023-07-29T02:29:26;18.10;98.00
4505;DHT22;2265;48.794;9.520;2023-07-29T02:31:55;18.10;98.00
4505;DHT22;2265;48.794;9.520;2023-07-29T02:34:22;18.20;98.00
4505;DHT22;2265;48.794;9.520;2023-07-29T02:36:49;18.20;98.00
4505;DHT22;2265;48.794;9.520;2023-07-29T02:39:16;18.10;98.00
4505;DHT22;2265;48.794;9.520;2023-07-29T02:41:43;18.00;98.00
4505;DHT22;2265;48.794;9.520;2023-07-29T02:44:11;17.90;98.00
4505;DHT22;2265;48.794;9.520;2023-07-29T02:46:38;17.80;98.00
4505;DHT22;2265;48.794;9.520;2023-07-29T02:49:08;17.80;98.00
4505;DHT22;2265;48.794;9.520;2023-07-29T02:51:35;17.80;98.00
4505;DHT22;2265;48.794;9.520;2023-07-29T02:54:03;17.80;98.00
4505;DHT22;2265;48.794;9.520;2023-07-29T02:56:30;17.80;98.00
4505;DHT22;2265;48.794;9.520;2023-07-29T02:58:57;17.80;98.00
4505;DHT22;2265;48.794;9.520;2023-07-29T03:01:25;17.90;98.00
4505;DHT22;2265;48.794;9.520;2023-07-29T03:03:52;18.00;98.00
4505;DHT22;2265;48.794;9.520;2023-07-29T03:06:21;17.90;98.00
4505;DHT22;2265;48.794;9.520;2023-07-29T03:08:48;17.80;98.00
4505;DHT22;2265;48.794;9.520;2023-07-29T03:11:16;17.80;98.00
4505;DHT22;2265;48.794;9.520;2023-07-29T03:13:44;17.70;98.00
4505;DHT22;2265;48.794;9.520;2023-07-29T03:16:12;17.70;98.00
4505;DHT22;2265;48.794;9.520;2023-07-29T03:18:42;17.50;98.00
4505;DHT22;2265;48.794;9.520;2023-07-29T03:21:10;17.60;98.00
4505;DHT22;2265;48.794;9.520;2023-07-29T03:23:46;17.70;98.00
4505;DHT22;2265;48.794;9.520;2023-07-29T03:26:14;17.60;98.00
4505;DHT22;2265;48.794;9.520;2023-07-29T03:28:42;17.50;98.00
4505;DHT22;2265;48.794;9.520;2023-07-29T03:31:10;17.50;98.00
4505;DHT22;2265;48.794;9.520;2023-07-29T03:33:37;17.50;98.00
4505;DHT22;2265;48.794;9.520;2023-07-29T03:36:04;17.40;98.00
4505;DHT22;2265;48.794;9.520;2023-07-29T03:38:31;17.40;98.00
4505;DHT22;2265;48.794;9.520;2023-07-29T03:41:02;17.40;98.00
4505;DHT22;2265;48.794;9.520;2023-07-29T03:43:29;17.40;98.00
4505;DHT22;2265;48.794;9.520;2023-07-29T03:45:56;17.40;98.00
4505;DHT22;2265;48.794;9.520;2023-07-29T03:48:23;17.50;98.00
4505;DHT22;2265;48.794;9.520;2023-07-29T03:50:50;17.50;98.00
4505;DHT22;2265;48.794;9.520;2023-07-29T03:53:17;17.50;98.00
4505;DHT22;2265;48.794;9.520;2023-07-29T03:55:44;17.50;98.00
4505;DHT22;2265;48.794;9.520;2023-07-29T03:58:14;17.50;98.00
4505;DHT22;2265;48.794;9.520;2023-07-29T04:00:40;17.40;98.00
4505;DHT22;2265;48.794;9.520;2023-07-29T04:03:08;17.40;98.00
4505;DHT22;2265;48.794;9.520;2023-07-29T04:05:35;17.50;98.00
4505;DHT22;2265;48.794;9.520;2023-07-29T04:08:03;17.40;98.00
4505;DHT22;2265;48.794;9.520;2023-07-29T04:10:30;17.50;98.00
4505;DHT22;2265;48.794;9.520;2023-07-29T04:12:57;17.50;98.00
4505;DHT22;2265;48.794;9.520;2023-07-29T04:15:26;17.60;98.00
4505;DHT22;2265;48.794;9.520;2023-07-29T04:17:53;17.60;98.00
4505;DHT22;2265;48.794;9.520;2023-07-29T04:20:20;17.60;98.00
4505;DHT22;2265;48.794;9.520;2023-07-29T04:22:47;17.70;98.00
4505;DHT22;2265;48.794;9.520;2023-07-29T04:25:17;17.90;98.00
4505;DHT22;2265;48.794;9.520;2023-07-29T04:27:45;18.00;98.00
4505;DHT22;2265;48.794;9.520;2023-07-29T04:30:12;18.00;98.00
4505;DHT22;2265;48.794;9.520;2023-07-29T04:32:40;17.80;98.00
4505;DHT22;2265;48.794;9.520;2023-07-29T04:35:10;17.80;98.00
4505;DHT22;2265;48.794;9.520;2023-07-29T04:37:37;17.70;98.00
4505;DHT22;2265;48.794;9.520;2023-07-29T04:40:06;17.70;98.00
4505;DHT22;2265;48.794;9.520;2023-07-29T04:42:33;17.80;98.00
4505;DHT22;2265;48.794;9.520;2023-07-29T04:45:00;17.80;98.00
4505;DHT22;2265;48.794;9.520;2023-07-29T04:47:27;17.90;98.00
4505;DHT22;2265;48.794;9.520;2023-07-29T04:49:55;18.00;98.00
4505;DHT22;2265;48.794;9.520;2023-07-29T04:52:22;17.90;98.00
4505;DHT22;2265;48.794;9.520;2023-07-29T04:54:51;17.90;98.00
4505;DHT22;2265;48.794;9.520;2023-07-29T04:57:18;17.80;98.00
4505;DHT22;2265;48.794;9.520;2023-07-29T04:59:46;17.80;98.00
4505;DHT22;2265;48.794;9.520;2023-07-29T05:02:13;17.80;98.00
4505;DHT22;2265;48.794;9.520;2023-07-29T05:04:41;17.80;98.00
4505;DHT22;2265;48.794;9.520;2023-07-29T05:07:09;17.80;98.00
4505;DHT22;2265;48.794;9.520;2023-07-29T05:09:36;17.80;98.00
4505;DHT22;2265;48.794;9.520;2023-07-29T05:12:04;17.80;98.00
4505;DHT22;2265;48.794;9.520;2023-07-29T05:14:31;17.80;98.00
4505;DHT22;2265;48.794;9.520;2023-07-29T05:16:58;17.90;98.00
4505;DHT22;2265;48.794;9.520;2023-07-29T05:19:26;18.10;98.00
4505;DHT22;2265;48.794;9.520;2023-07-29T05:21:53;18.10;98.00
4505;DHT22;2265;48.794;9.520;2023-07-29T05:24:22;18.00;98.00
4505;DHT22;2265;48.794;9.520;2023-07-29T05:26:49;18.10;98.00
4505;DHT22;2265;48.794;9.520;2023-07-29T05:29:16;18.10;98.00
4505;DHT22;2265;48.794;9.520;2023-07-29T05:31:43;18.20;98.00
4505;DHT22;2265;48.794;9.520;2023-07-29T05:34:13;18.30;98.00
4505;DHT22;2265;48.794;9.520;2023-07-29T05:36:40;18.20;98.00
4505;DHT22;2265;48.794;9.520;2023-07-29T05:39:07;18.20;98.00
4505;DHT22;2265;48.794;9.520;2023-07-29T05:41:36;18.10;98.00
4505;DHT22;2265;48.794;9.520;2023-07-29T05:44:03;18.10;98.00
4505;DHT22;2265;48.794;9.520;2023-07-29T05:46:30;18.20;98.00
4505;DHT22;2265;48.794;9.520;2023-07-29T05:48:57;18.20;98.00
4505;DHT22;2265;48.794;9.520;2023-07-29T05:51:24;18.20;98.00
4505;DHT22;2265;48.794;9.520;2023-07-29T05:53:51;18.30;98.00
4505;DHT22;2265;48.794;9.520;2023-07-29T05:56:18;18.30;98.00
4505;DHT22;2265;48.794;9.520;2023-07-29T05:58:47;18.50;98.00
4505;DHT22;2265;48.794;9.520;2023-07-29T06:01:15;18.60;98.00
4505;DHT22;2265;48.794;9.520;2023-07-29T06:03:47;18.70;98.00
4505;DHT22;2265;48.794;9.520;2023-07-29T06:06:14;18.70;98.00
4505;DHT22;2265;48.794;9.520;2023-07-29T06:08:41;18.90;98.00
4505;DHT22;2265;48.794;9.520;2023-07-29T06:11:08;19.00;98.00
4505;DHT22;2265;48.794;9.520;2023-07-29T06:13:35;19.10;98.00
4505;DHT22;2265;48.794;9.520;2023-07-29T06:16:04;19.20;98.00
4505;DHT22;2265;48.794;9.520;2023-07-29T06:18:32;19.20;98.00
4505;DHT22;2265;48.794;9.520;2023-07-29T06:20:59;19.20;98.00
4505;DHT22;2265;48.794;9.520;2023-07-29T06:23:26;19.30;98.00
4505;DHT22;2265;48.794;9.520;2023-07-29T06:25:53;19.30;98.00
4505;DHT22;2265;48.794;9.520;2023-07-29T06:28:20;19.40;98.00
4505;DHT22;2265;48.794;9.520;2023-07-29T06:30:47;19.50;98.00
4505;DHT22;2265;48.794;9.520;2023-07-29T06:33:16;19.60;98.00
4505;DHT22;2265;48.794;9.520;2023-07-29T06:35:43;19.60;98.00
4505;DHT22;2265;48.794;9.520;2023-07-29T06:38:12;19.70;98.00
4505;DHT22;2265;48.794;9.520;2023-07-29T06:40:39;19.70;98.00
4505;DHT22;2265;48.794;9.520;2023-07-29T06:43:08;19.70;98.00
4505;DHT22;2265;48.794;9.520;2023-07-29T06:45:35;19.80;98.00
4505;DHT22;2265;48.794;9.520;2023-07-29T06:48:02;20.00;98.00
4505;DHT22;2265;48.794;9.520;2023-07-29T06:50:30;20.10;98.00
4505;DHT22;2265;48.794;9.520;2023-07-29T06:52:58;20.00;98.00
4505;DHT22;2265;48.794;9.520;2023-07-29T06:55:25;20.20;98.00
4505;DHT22;2265;48.794;9.520;2023-07-29T06:57:52;20.20;98.00
4505;DHT22;2265;48.794;9.520;2023-07-29T07:00:19;20.30;98.00
4505;DHT22;2265;48.794;9.520;2023-07-29T07:02:46;20.30;98.00
4505;DHT22;2265;48.794;9.520;2023-07-29T07:05:13;20.30;98.00
4505;DHT22;2265;48.794;9.520;2023-07-29T07:07:42;20.20;98.00
4505;DHT22;2265;48.794;9.520;2023-07-29T07:10:09;20.20;98.00
4505;DHT22;2265;48.794;9.520;2023-07-29T07:12:36;20.20;98.00
4505;DHT22;2265;48.794;9.520;2023-07-29T07:15:04;20.10;98.00
4505;DHT22;2265;48.794;9.520;2023-07-29T07:17:31;20.10;98.00
4505;DHT22;2265;48.794;9.520;2023-07-29T07:19:58;20.00;98.00
4505;DHT22;2265;48.794;9.520;2023-07-29T07:22:25;19.90;98.00
4505;DHT22;2265;48.794;9.520;2023-07-29T07:24:54;19.80;98.00
4505;DHT22;2265;48.794;9.520;2023-07-29T07:27:21;19.70;98.00
4505;DHT22;2265;48.794;9.520;2023-07-29T07:29:48;19.60;98.00
4505;DHT22;2265;48.794;9.520;2023-07-29T07:32:15;19.50;98.00
4505;DHT22;2265;48.794;9.520;2023-07-29T07:34:43;19.50;98.00
4505;DHT22;2265;48.794;9.520;2023-07-29T07:37:10;19.40;98.00
4505;DHT22;2265;48.794;9.520;2023-07-29T07:39:37;19.40;98.00
4505;DHT22;2265;48.794;9.520;2023-07-29T07:42:06;19.40;98.00
4505;DHT22;2265;48.794;9.520;2023-07-29T07:44:33;19.30;98.00
4505;DHT22;2265;48.794;9.520;2023-07-29T07:47:00;19.30;98.00
4505;DHT22;2265;48.794;9.520;2023-07-29T07:49:27;19.40;98.00
4505;DHT22;2265;48.794;9.520;2023-07-29T07:51:54;19.30;98.00
4505;DHT22;2265;48.794;9.520;2023-07-29T07:54:21;19.40;98.00
4505;DHT22;2265;48.794;9.520;2023-07-29T07:56:48;19.40;98.00
4505;DHT22;2265;48.794;9.520;2023-07-29T07:59:17;19.50;98.00
4505;DHT22;2265;48.794;9.520;2023-07-29T08:01:44;19.60;98.00
4505;DHT22;2265;48.794;9.520;2023-07-29T08:04:12;19.70;98.00
4505;DHT22;2265;48.794;9.520;2023-07-29T08:06:40;19.80;98.00
4505;DHT22;2265;48.794;9.520;2023-07-29T08:09:07;19.80;98.00
4505;DHT22;2265;48.794;9.520;2023-07-29T08:11:34;19.90;98.00
4505;DHT22;2265;48.794;9.520;2023-07-29T08:14:01;19.90;98.00
4505;DHT22;2265;48.794;9.520;2023-07-29T08:16:30;19.80;98.00
4505;DHT22;2265;48.794;9.520;2023-07-29T08:18:57;19.90;98.00
4505;DHT22;2265;48.794;9.520;2023-07-29T08:21:24;19.90;98.00
4505;DHT22;2265;48.794;9.520;2023-07-29T08:23:51;20.00;98.00
4505;DHT22;2265;48.794;9.520;2023-07-29T08:26:19;20.00;98.00
4505;DHT22;2265;48.794;9.520;2023-07-29T08:28:53;20.00;98.00
4505;DHT22;2265;48.794;9.520;2023-07-29T08:31:20;20.10;98.00
4505;DHT22;2265;48.794;9.520;2023-07-29T08:33:49;20.10;98.00
4505;DHT22;2265;48.794;9.520;2023-07-29T08:36:16;20.20;98.00
4505;DHT22;2265;48.794;9.520;2023-07-29T08:38:43;20.20;98.00
4505;DHT22;2265;48.794;9.520;2023-07-29T08:41:13;20.30;98.00
4505;DHT22;2265;48.794;9.520;2023-07-29T08:43:49;20.40;98.00
4505;DHT22;2265;48.794;9.520;2023-07-29T08:46:17;20.60;98.00
4505;DHT22;2265;48.794;9.520;2023-07-29T08:48:47;20.80;98.00
4505;DHT22;2265;48.794;9.520;2023-07-29T08:51:14;21.00;98.00
4505;DHT22;2265;48.794;9.520;2023-07-29T08:53:43;21.20;98.00
4505;DHT22;2265;48.794;9.520;2023-07-29T08:56:10;21.50;98.00
4505;DHT22;2265;48.794;9.520;2023-07-29T08:58:37;21.60;98.00
4505;DHT22;2265;48.794;9.520;2023-07-29T09:01:06;21.50;98.00
4505;DHT22;2265;48.794;9.520;2023-07-29T09:03:33;21.60;98.00
4505;DHT22;2265;48.794;9.520;2023-07-29T09:06:05;21.70;98.00
4505;DHT22;2265;48.794;9.520;2023-07-29T09:08:34;22.00;98.00
4505;DHT22;2265;48.794;9.520;2023-07-29T09:11:01;22.10;98.00
4505;DHT22;2265;48.794;9.520;2023-07-29T09:13:28;22.20;98.00
4505;DHT22;2265;48.794;9.520;2023-07-29T09:15:57;22.30;98.00
4505;DHT22;2265;48.794;9.520;2023-07-29T09:18:26;22.30;98.00
4505;DHT22;2265;48.794;9.520;2023-07-29T09:20:54;22.40;98.00
4505;DHT22;2265;48.794;9.520;2023-07-29T09:23:26;22.70;98.00
4505;DHT22;2265;48.794;9.520;2023-07-29T09:26:01;23.00;98.00
4505;DHT22;2265;48.794;9.520;2023-07-29T09:28:33;23.20;98.00
4505;DHT22;2265;48.794;9.520;2023-07-29T09:31:00;23.30;98.00
4505;DHT22;2265;48.794;9.520;2023-07-29T09:33:27;23.30;98.00
4505;DHT22;2265;48.794;9.520;2023-07-29T09:35:54;23.20;98.00
4505;DHT22;2265;48.794;9.520;2023-07-29T09:38:27;23.10;98.00
4505;DHT22;2265;48.794;9.520;2023-07-29T09:40:55;23.10;98.00
4505;DHT22;2265;48.794;9.520;2023-07-29T09:43:26;23.00;98.00
4505;DHT22;2265;48.794;9.520;2023-07-29T09:45:55;23.10;98.00
4505;DHT22;2265;48.794;9.520;2023-07-29T09:48:26;23.10;98.00
4505;DHT22;2265;48.794;9.520;2023-07-29T09:50:54;23.20;98.00
4505;DHT22;2265;48.794;9.520;2023-07-29T09:53:24;23.20;98.00
4505;DHT22;2265;48.794;9.520;2023-07-29T09:55:53;23.40;98.00
4505;DHT22;2265;48.794;9.520;2023-07-29T09:58:26;23.70;98.00
4505;DHT22;2265;48.794;9.520;2023-07-29T10:00:54;23.90;98.00
4505;DHT22;2265;48.794;9.520;2023-07-29T10:03:21;24.00;98.00
4505;DHT22;2265;48.794;9.520;2023-07-29T10:05:49;24.10;98.00
4505;DHT22;2265;48.794;9.520;2023-07-29T10:08:18;24.20;98.00
4505;DHT22;2265;48.794;9.520;2023-07-29T10:10:49;24.40;98.00
4505;DHT22;2265;48.794;9.520;2023-07-29T10:13:18;24.30;98.00
4505;DHT22;2265;48.794;9.520;2023-07-29T10:15:47;24.50;98.00
4505;DHT22;2265;48.794;9.520;2023-07-29T10:18:15;24.50;98.00
4505;DHT22;2265;48.794;9.520;2023-07-29T10:20:43;24.70;98.00
4505;DHT22;2265;48.794;9.520;2023-07-29T10:23:11;24.90;98.00
4505;DHT22;2265;48.794;9.520;2023-07-29T10:25:45;25.00;98.00
4505;DHT22;2265;48.794;9.520;2023-07-29T10:28:15;25.00;98.00
4505;DHT22;2265;48.794;9.520;2023-07-29T10:30:46;25.40;98.00
4505;DHT22;2265;48.794;9.520;2023-07-29T10:33:14;25.60;98.00
4505;DHT22;2265;48.794;9.520;2023-07-29T10:35:41;25.90;98.00
4505;DHT22;2265;48.794;9.520;2023-07-29T10:38:10;26.00;98.00
4505;DHT22;2265;48.794;9.520;2023-07-29T10:40:47;26.10;98.00
4505;DHT22;2265;48.794;9.520;2023-07-29T10:43:19;25.90;98.00
4505;DHT22;2265;48.794;9.520;2023-07-29T10:45:52;25.90;98.00
4505;DHT22;2265;48.794;9.520;2023-07-29T10:48:41;25.80;98.00
4505;DHT22;2265;48.794;9.520;2023-07-29T10:51:28;25.60;98.00
4505;DHT22;2265;48.794;9.520;2023-07-29T10:53:58;25.10;98.00
4505;DHT22;2265;48.794;9.520;2023-07-29T10:56:30;24.90;98.00
4505;DHT22;2265;48.794;9.520;2023-07-29T10:59:00;24.90;98.00
4505;DHT22;2265;48.794;9.520;2023-07-29T11:01:31;24.90;98.00
4505;DHT22;2265;48.794;9.520;2023-07-29T11:04:23;24.60;98.00
4505;DHT22;2265;48.794;9.520;2023-07-29T11:07:21;24.10;98.00
4505;DHT22;2265;48.794;9.520;2023-07-29T11:10:01;23.80;98.00
4505;DHT22;2265;48.794;9.520;2023-07-29T11:12:43;23.50;98.00
4505;DHT22;2265;48.794;9.520;2023-07-29T11:15:18;23.70;98.00
4505;DHT22;2265;48.794;9.520;2023-07-29T11:17:49;24.00;98.00
4505;DHT22;2265;48.794;9.520;2023-07-29T11:20:17;24.30;98.00
4505;DHT22;2265;48.794;9.520;2023-07-29T11:22:44;24.50;98.00
4505;DHT22;2265;48.794;9.520;2023-07-29T11:25:12;24.70;98.00
4505;DHT22;2265;48.794;9.520;2023-07-29T11:27:40;24.80;98.00
4505;DHT22;2265;48.794;9.520;2023-07-29T11:30:09;24.70;98.00
4505;DHT22;2265;48.794;9.520;2023-07-29T11:32:37;24.70;98.00
4505;DHT22;2265;48.794;9.520;2023-07-29T11:35:08;24.80;98.00
4505;DHT22;2265;48.794;9.520;2023-07-29T11:37:37;24.80;98.00
4505;DHT22;2265;48.794;9.520;2023-07-29T11:40:05;24.90;98.00
4505;DHT22;2265;48.794;9.520;2023-07-29T11:42:37;24.90;98.00
4505;DHT22;2265;48.794;9.520;2023-07-29T11:45:05;24.90;98.00
4505;DHT22;2265;48.794;9.520;2023-07-29T11:47:33;25.10;98.00
4505;DHT22;2265;48.794;9.520;2023-07-29T11:50:04;25.30;98.00
4505;DHT22;2265;48.794;9.520;2023-07-29T11:52:32;25.40;98.00
4505;DHT22;2265;48.794;9.520;2023-07-29T11:55:00;25.40;98.00
4505;DHT22;2265;48.794;9.520;2023-07-29T11:57:29;25.30;98.00
4505;DHT22;2265;48.794;9.520;2023-07-29T11:59:56;25.20;98.00
4505;DHT22;2265;48.794;9.520;2023-07-29T12:02:24;25.20;98.00
4505;DHT22;2265;48.794;9.520;2023-07-29T12:04:52;25.20;98.00
4505;DHT22;2265;48.794;9.520;2023-07-29T12:07:21;25.60;98.00
4505;DHT22;2265;48.794;9.520;2023-07-29T12:09:49;26.00;98.00
4505;DHT22;2265;48.794;9.520;2023-07-29T12:12:17;26.40;98.00
4505;DHT22;2265;48.794;9.520;2023-07-29T12:14:44;26.90;98.00
4505;DHT22;2265;48.794;9.520;2023-07-29T12:17:13;27.40;98.00
4505;DHT22;2265;48.794;9.520;2023-07-29T12:19:41;27.40;98.00
4505;DHT22;2265;48.794;9.520;2023-07-29T12:22:10;27.40;98.00
4505;DHT22;2265;48.794;9.520;2023-07-29T12:24:40;27.90;98.00
4505;DHT22;2265;48.794;9.520;2023-07-29T12:27:11;28.20;98.00
4505;DHT22;2265;48.794;9.520;2023-07-29T12:29:43;28.40;98.00
4505;DHT22;2265;48.794;9.520;2023-07-29T12:32:12;28.70;98.00
4505;DHT22;2265;48.794;9.520;2023-07-29T12:34:39;29.10;98.00
4505;DHT22;2265;48.794;9.520;2023-07-29T12:37:07;29.50;98.00
4505;DHT22;2265;48.794;9.520;2023-07-29T12:39:35;29.70;98.00
4505;DHT22;2265;48.794;9.520;2023-07-29T12:42:04;29.80;98.00
4505;DHT22;2265;48.794;9.520;2023-07-29T12:44:33;29.70;98.00
4505;DHT22;2265;48.794;9.520;2023-07-29T12:47:01;29.90;98.00
4505;DHT22;2265;48.794;9.520;2023-07-29T12:49:29;30.00;98.00
4505;DHT22;2265;48.794;9.520;2023-07-29T12:51:57;29.50;98.00
4505;DHT22;2265;48.794;9.520;2023-07-29T12:54:24;28.70;98.00
4505;DHT22;2265;48.794;9.520;2023-07-29T12:56:51;28.30;98.00
4505;DHT22;2265;48.794;9.520;2023-07-29T12:59:20;28.30;98.00
4505;DHT22;2265;48.794;9.520;2023-07-29T13:01:47;28.40;98.00
4505;DHT22;2265;48.794;9.520;2023-07-29T13:04:14;28.70;98.00
4505;DHT22;2265;48.794;9.520;2023-07-29T13:06:41;28.60;98.00
4505;DHT22;2265;48.794;9.520;2023-07-29T13:09:08;28.20;98.00
4505;DHT22;2265;48.794;9.520;2023-07-29T13:11:35;27.80;98.00
4505;DHT22;2265;48.794;9.520;2023-07-29T13:14:02;27.60;98.00
4505;DHT22;2265;48.794;9.520;2023-07-29T13:16:31;27.50;98.00
4505;DHT22;2265;48.794;9.520;2023-07-29T13:18:59;27.70;98.00
4505;DHT22;2265;48.794;9.520;2023-07-29T13:21:26;27.70;98.00
4505;DHT22;2265;48.794;9.520;2023-07-29T13:23:53;27.50;98.00
4505;DHT22;2265;48.794;9.520;2023-07-29T13:26:20;27.30;98.00
4505;DHT22;2265;48.794;9.520;2023-07-29T13:28:47;27.20;98.00
4505;DHT22;2265;48.794;9.520;2023-07-29T13:31:16;26.90;98.00
4505;DHT22;2265;48.794;9.520;2023-07-29T13:33:45;27.00;98.00
4505;DHT22;2265;48.794;9.520;2023-07-29T13:36:12;27.10;98.00
4505;DHT22;2265;48.794;9.520;2023-07-29T13:38:39;27.30;98.00
4505;DHT22;2265;48.794;9.520;2023-07-29T13:41:06;27.40;98.00
4505;DHT22;2265;48.794;9.520;2023-07-29T13:43:33;27.40;98.00
4505;DHT22;2265;48.794;9.520;2023-07-29T13:46:00;27.20;98.00
4505;DHT22;2265;48.794;9.520;2023-07-29T13:48:27;27.10;98.00
4505;DHT22;2265;48.794;9.520;2023-07-29T13:50:56;26.90;98.00
4505;DHT22;2265;48.794;9.520;2023-07-29T13:53:23;26.60;98.00
4505;DHT22;2265;48.794;9.520;2023-07-29T13:55:51;26.40;98.00
4505;DHT22;2265;48.794;9.520;2023-07-29T13:58:18;26.20;98.00
4505;DHT22;2265;48.794;9.520;2023-07-29T14:00:45;26.30;98.00
4505;DHT22;2265;48.794;9.520;2023-07-29T14:03:13;26.40;98.00
4505;DHT22;2265;48.794;9.520;2023-07-29T14:05:40;26.50;98.00
4505;DHT22;2265;48.794;9.520;2023-07-29T14:08:09;26.70;98.00
4505;DHT22;2265;48.794;9.520;2023-07-29T14:10:36;26.70;98.00
4505;DHT22;2265;48.794;9.520;2023-07-29T14:13:03;26.70;98.00
4505;DHT22;2265;48.794;9.520;2023-07-29T14:15:30;26.80;98.00
4505;DHT22;2265;48.794;9.520;2023-07-29T14:17:58;26.80;98.00
4505;DHT22;2265;48.794;9.520;2023-07-29T14:20:26;26.90;98.00
4505;DHT22;2265;48.794;9.520;2023-07-29T14:22:53;27.00;98.00
4505;DHT22;2265;48.794;9.520;2023-07-29T14:25:29;27.10;98.00
4505;DHT22;2265;48.794;9.520;2023-07-29T14:27:57;27.10;98.00
4505;DHT22;2265;48.794;9.520;2023-07-29T14:30:23;27.10;98.00
4505;DHT22;2265;48.794;9.520;2023-07-29T14:32:50;27.00;98.00
4505;DHT22;2265;48.794;9.520;2023-07-29T14:35:17;26.90;98.00
4505;DHT22;2265;48.794;9.520;2023-07-29T14:37:44;26.90;98.00
4505;DHT22;2265;48.794;9.520;2023-07-29T14:40:11;26.80;98.00
4505;DHT22;2265;48.794;9.520;2023-07-29T14:42:42;26.80;98.00
4505;DHT22;2265;48.794;9.520;2023-07-29T14:45:10;27.10;98.00
4505;DHT22;2265;48.794;9.520;2023-07-29T14:47:37;27.30;98.00
4505;DHT22;2265;48.794;9.520;2023-07-29T14:50:04;27.20;98.00
4505;DHT22;2265;48.794;9.520;2023-07-29T14:52:31;27.20;98.00
4505;DHT22;2265;48.794;9.520;2023-07-29T14:54:58;27.20;98.00
4505;DHT22;2265;48.794;9.520;2023-07-29T14:57:26;27.10;98.00
4505;DHT22;2265;48.794;9.520;2023-07-29T14:59:54;27.00;98.00
4505;DHT22;2265;48.794;9.520;2023-07-29T15:02:21;26.90;98.00
4505;DHT22;2265;48.794;9.520;2023-07-29T15:04:49;26.80;98.00
4505;DHT22;2265;48.794;9.520;2023-07-29T15:07:17;26.70;98.00
4505;DHT22;2265;48.794;9.520;2023-07-29T15:09:44;26.60;98.00
4505;DHT22;2265;48.794;9.520;2023-07-29T15:12:12;26.50;98.00
4505;DHT22;2265;48.794;9.520;2023-07-29T15:14:39;26.50;98.00
4505;DHT22;2265;48.794;9.520;2023-07-29T15:17:07;26.60;98.00
4505;DHT22;2265;48.794;9.520;2023-07-29T15:19:34;26.60;98.00
4505;DHT22;2265;48.794;9.520;2023-07-29T15:22:01;26.70;98.00
4505;DHT22;2265;48.794;9.520;2023-07-29T15:24:30;26.80;98.00
4505;DHT22;2265;48.794;9.520;2023-07-29T15:26:57;26.80;98.00
4505;DHT22;2265;48.794;9.520;2023-07-29T15:29:24;26.90;98.00
4505;DHT22;2265;48.794;9.520;2023-07-29T15:31:51;27.20;98.00
4505;DHT22;2265;48.794;9.520;2023-07-29T15:34:20;27.40;98.00
4505;DHT22;2265;48.794;9.520;2023-07-29T15:36:49;27.50;98.00
4505;DHT22;2265;48.794;9.520;2023-07-29T15:39:16;27.60;98.00
4505;DHT22;2265;48.794;9.520;2023-07-29T15:41:43;27.60;98.00
4505;DHT22;2265;48.794;9.520;2023-07-29T15:44:10;27.70;97.50
4505;DHT22;2265;48.794;9.520;2023-07-29T15:46:38;27.70;98.00
4505;DHT22;2265;48.794;9.520;2023-07-29T15:49:05;27.90;98.00
4505;DHT22;2265;48.794;9.520;2023-07-29T15:51:33;28.00;98.00
4505;DHT22;2265;48.794;9.520;2023-07-29T15:54:00;28.10;96.60
4505;DHT22;2265;48.794;9.520;2023-07-29T15:56:27;27.90;95.30
4505;DHT22;2265;48.794;9.520;2023-07-29T15:58:54;28.00;97.60
4505;DHT22;2265;48.794;9.520;2023-07-29T16:01:22;28.20;97.70
4505;DHT22;2265;48.794;9.520;2023-07-29T16:03:49;28.40;94.20
4505;DHT22;2265;48.794;9.520;2023-07-29T16:06:16;28.10;94.40
4505;DHT22;2265;48.794;9.520;2023-07-29T16:08:44;27.90;96.50